createdAt,value
2018-07-12T00:02:14.119Z,68.83
2018-07-12T00:04:41.191Z,69.96
2018-07-12T00:07:08.258Z,69.68
2018-07-12T00:09:35.346Z,69.79
2018-07-12T00:12:02.402Z,70.12
2018-07-12T00:14:29.538Z,69.55
2018-07-12T00:16:56.757Z,69.58
2018-07-12T00:19:23.829Z,70.15
2018-07-12T00:21:50.897Z,69.84
2018-07-12T00:24:17.973Z,69.59
2018-07-12T00:26:45.130Z,69.94
2018-07-12T00:29:12.208Z,69.87
2018-07-12T00:31:39.270Z,70.57
2018-07-12T00:34:06.341Z,69.47
2018-07-12T00:36:33.413Z,70.02
2018-07-12T00:39:00.482Z,69.55
2018-07-12T00:41:27.554Z,69.96
2018-07-12T00:43:54.622Z,70.45
2018-07-12T00:46:21.692Z,69.96
2018-07-12T00:48:48.753Z,69.88
2018-07-12T00:51:15.840Z,70.31
2018-07-12T00:53:42.905Z,70.13
2018-07-12T00:56:09.971Z,70.90
2018-07-12T00:58:37.041Z,70.62
2018-07-12T01:01:04.118Z,70.99
2018-07-12T01:03:31.190Z,70.30
2018-07-12T01:05:58.261Z,70.75
2018-07-12T01:08:25.327Z,70.88
2018-07-12T01:10:52.397Z,71.28
2018-07-12T01:13:19.462Z,70.65
2018-07-12T01:15:46.548Z,70.61
2018-07-12T01:18:13.627Z,70.50
2018-07-12T01:20:40.710Z,70.56
2018-07-12T01:23:07.792Z,71.33
2018-07-12T01:25:34.863Z,70.92
2018-07-12T01:28:01.930Z,71.33
2018-07-12T01:30:28.998Z,71.59
2018-07-12T01:32:56.117Z,71.06
2018-07-12T01:35:23.189Z,71.92
2018-07-12T01:37:50.265Z,70.96
2018-07-12T01:40:17.346Z,71.50
2018-07-12T01:42:44.474Z,71.63
2018-07-12T01:45:11.687Z,71.14
2018-07-12T01:47:38.757Z,71.08
2018-07-12T01:50:06.110Z,71.21
2018-07-12T01:52:33.177Z,71.62
2018-07-12T01:55:00.247Z,71.63
2018-07-12T01:57:27.635Z,71.19
2018-07-12T01:59:54.698Z,71.42
2018-07-12T02:02:21.953Z,71.37
2018-07-12T02:04:49.027Z,71.16
2018-07-12T02:07:16.095Z,71.30
2018-07-12T02:09:43.157Z,70.99
2018-07-12T02:12:10.218Z,71.83
2018-07-12T02:14:37.301Z,72.14
2018-07-12T02:17:04.584Z,70.94
2018-07-12T02:19:31.645Z,71.68
2018-07-12T02:21:58.723Z,71.54
2018-07-12T02:24:25.789Z,71.25
2018-07-12T02:26:52.877Z,71.71
2018-07-12T02:29:19.939Z,71.63
2018-07-12T02:31:47.001Z,71.65
2018-07-12T02:34:14.061Z,71.91
2018-07-12T02:36:41.134Z,71.16
2018-07-12T02:39:08.201Z,71.39
2018-07-12T02:41:35.267Z,71.29
2018-07-12T02:44:02.333Z,71.22
2018-07-12T02:46:29.406Z,72.16
2018-07-12T02:48:56.478Z,71.79
2018-07-12T02:51:23.554Z,71.90
2018-07-12T02:53:50.639Z,71.68
2018-07-12T02:56:17.696Z,71.34
2018-07-12T02:58:44.770Z,71.57
2018-07-12T03:01:11.839Z,72.17
2018-07-12T03:03:38.913Z,72.24
2018-07-12T03:06:05.995Z,72.17
2018-07-12T03:08:33.314Z,71.85
2018-07-12T03:11:00.789Z,72.19
2018-07-12T03:13:28.126Z,72.25
2018-07-12T03:15:55.234Z,71.81
2018-07-12T03:18:22.301Z,72.75
2018-07-12T03:20:49.376Z,72.41
2018-07-12T03:23:16.445Z,72.50
2018-07-12T03:25:43.506Z,71.88
2018-07-12T03:28:10.578Z,72.61
2018-07-12T03:30:37.757Z,71.58
2018-07-12T03:33:04.828Z,71.89
2018-07-12T03:35:31.925Z,72.05
2018-07-12T03:37:59.206Z,72.47
2018-07-12T03:40:26.343Z,72.12
2018-07-12T03:42:53.342Z,71.43
2018-07-12T03:45:20.667Z,71.19
2018-07-12T03:47:47.911Z,71.14
2018-07-12T03:50:14.983Z,71.41
2018-07-12T03:52:42.152Z,71.35
2018-07-12T03:55:09.221Z,71.56
2018-07-12T03:57:36.289Z,71.62
2018-07-12T04:00:04.469Z,71.29
2018-07-12T04:02:31.537Z,71.74
2018-07-12T04:04:58.601Z,71.85
2018-07-12T04:07:25.705Z,71.67
2018-07-12T04:09:52.978Z,72.21
2018-07-12T04:12:20.090Z,71.56
2018-07-12T04:14:47.182Z,72.12
2018-07-12T04:17:24.353Z,72.03
2018-07-12T04:19:51.550Z,72.17
2018-07-12T04:22:18.618Z,72.42
2018-07-12T04:24:45.673Z,71.97
2018-07-12T04:27:12.742Z,72.34
2018-07-12T04:29:40.111Z,72.07
2018-07-12T04:32:07.173Z,73.06
2018-07-12T04:34:34.261Z,72.41
2018-07-12T04:37:01.357Z,73.23
2018-07-12T04:39:28.417Z,73.33
2018-07-12T04:41:55.750Z,73.77
2018-07-12T04:44:23.309Z,74.23
2018-07-12T04:46:50.382Z,74.32
2018-07-12T04:49:17.575Z,74.31
2018-07-12T04:51:44.659Z,75.12
2018-07-12T04:54:11.912Z,75.09
2018-07-12T04:56:38.977Z,74.56
2018-07-12T04:59:06.074Z,75.17
2018-07-12T05:01:33.176Z,74.74
2018-07-12T05:04:00.400Z,74.48
2018-07-12T05:06:27.475Z,75.01
2018-07-12T05:08:54.797Z,74.86
2018-07-12T05:11:22.513Z,75.36
2018-07-12T05:13:50.044Z,74.40
2018-07-12T05:16:17.133Z,75.40
2018-07-12T05:18:44.178Z,74.98
2018-07-12T05:21:11.250Z,75.31
2018-07-12T05:23:38.329Z,75.14
2018-07-12T05:26:05.454Z,74.62
2018-07-12T05:28:32.647Z,74.63
2018-07-12T05:30:59.791Z,74.00
2018-07-12T05:33:27.223Z,73.71
2018-07-12T05:35:55.309Z,74.67
2018-07-12T05:38:23.378Z,74.79
2018-07-12T05:40:51.526Z,74.18
2018-07-12T05:43:19.567Z,74.52
2018-07-12T05:45:48.182Z,73.59
2018-07-12T05:48:16.281Z,73.59
2018-07-12T05:50:47.197Z,73.89
2018-07-12T05:53:16.133Z,73.39
2018-07-12T05:55:44.245Z,73.73
2018-07-12T05:58:12.584Z,73.51
2018-07-12T06:00:41.505Z,73.51
2018-07-12T06:03:09.793Z,73.58
2018-07-12T06:05:37.994Z,73.23
2018-07-12T06:08:06.059Z,73.68
2018-07-12T06:10:34.634Z,73.40
2018-07-12T06:13:02.726Z,73.26
2018-07-12T06:15:30.893Z,72.47
2018-07-12T06:17:59.049Z,72.86
2018-07-12T06:20:27.109Z,72.71
2018-07-12T06:22:55.153Z,72.15
2018-07-12T06:25:23.207Z,72.27
2018-07-12T06:27:51.268Z,71.77
2018-07-12T06:30:19.350Z,70.99
2018-07-12T06:32:47.402Z,71.36
2018-07-12T06:35:15.471Z,71.08
2018-07-12T06:37:43.566Z,71.46
2018-07-12T06:40:11.613Z,71.22
2018-07-12T06:42:39.899Z,71.17
2018-07-12T06:45:08.241Z,70.83
2018-07-12T06:47:36.281Z,71.46
2018-07-12T06:50:04.867Z,70.72
2018-07-12T06:52:32.921Z,70.62
2018-07-12T06:55:01.152Z,70.46
2018-07-12T06:57:29.555Z,70.74
2018-07-12T06:59:57.748Z,69.98
2018-07-12T07:02:26.066Z,69.51
2018-07-12T07:04:54.219Z,70.09
2018-07-12T07:07:22.353Z,70.31
2018-07-12T07:09:50.417Z,70.62
2018-07-12T07:12:18.473Z,70.45
2018-07-12T07:14:46.675Z,69.94
2018-07-12T07:17:14.910Z,69.65
2018-07-12T07:19:42.961Z,70.11
2018-07-12T07:22:11.043Z,69.30
2018-07-12T07:24:39.103Z,69.39
2018-07-12T07:27:07.305Z,68.81
2018-07-12T07:29:35.457Z,68.60
2018-07-12T07:32:03.889Z,68.97
2018-07-12T07:34:31.928Z,69.44
2018-07-12T07:37:00.284Z,69.30
2018-07-12T07:39:28.313Z,68.66
2018-07-12T07:41:56.595Z,68.10
2018-07-12T07:44:24.623Z,68.28
2018-07-12T07:46:52.669Z,68.47
2018-07-12T07:49:20.767Z,68.36
2018-07-12T07:51:48.905Z,68.63
2018-07-12T07:54:16.922Z,68.14
2018-07-12T07:56:44.996Z,67.81
2018-07-12T07:59:13.029Z,68.49
2018-07-12T08:01:41.218Z,68.21
2018-07-12T08:04:09.269Z,68.31
2018-07-12T08:06:37.288Z,68.36
2018-07-12T08:09:06.436Z,67.76
2018-07-12T08:11:34.516Z,66.78
2018-07-12T08:14:02.544Z,67.21
2018-07-12T08:16:30.566Z,67.74
2018-07-12T08:18:58.587Z,67.65
2018-07-12T08:21:26.619Z,67.21
2018-07-12T08:23:56.886Z,66.52
2018-07-12T08:26:30.437Z,66.50
2018-07-12T08:28:58.580Z,66.86
2018-07-12T08:31:26.609Z,65.02
2018-07-12T08:33:54.712Z,65.51
2018-07-12T08:36:22.724Z,65.97
2018-07-12T08:38:50.748Z,65.80
2018-07-12T08:41:18.929Z,65.51
2018-07-12T08:43:46.952Z,64.85
2018-07-12T08:46:14.999Z,63.78
2018-07-12T08:48:43.021Z,63.28
2018-07-12T08:51:13.365Z,62.61
2018-07-12T08:53:41.405Z,63.55
2018-07-12T08:56:09.517Z,63.05
2018-07-12T08:58:37.571Z,62.98
2018-07-12T09:01:05.854Z,62.56
2018-07-12T09:03:33.885Z,62.46
2018-07-12T09:06:01.925Z,61.41
2018-07-12T09:08:30.109Z,61.43
2018-07-12T09:10:58.158Z,59.85
2018-07-12T09:13:26.180Z,59.70
2018-07-12T09:15:54.213Z,59.06
2018-07-12T09:18:22.541Z,59.25
2018-07-12T09:20:50.604Z,58.93
2018-07-12T09:23:18.661Z,57.21
2018-07-12T09:25:46.702Z,56.23
2018-07-12T09:28:16.465Z,54.71
2018-07-12T09:30:44.708Z,55.92
2018-07-12T09:33:12.709Z,55.53
2018-07-12T09:35:41.716Z,55.17
2018-07-12T09:38:22.618Z,54.69
2018-07-12T09:40:50.691Z,53.73
2018-07-12T09:43:18.726Z,54.34
2018-07-12T09:45:46.782Z,53.99
2018-07-12T09:48:14.869Z,52.80
2018-07-12T09:50:42.888Z,51.46
2018-07-12T09:53:10.951Z,52.10
2018-07-12T09:55:51.618Z,51.77
2018-07-12T09:58:26.673Z,52.61
2018-07-12T10:01:00.266Z,51.13
2018-07-12T10:03:33.612Z,51.22
2018-07-12T10:06:01.811Z,50.94
2018-07-12T10:08:35.111Z,50.07
2018-07-12T10:11:07.247Z,49.58
2018-07-12T10:13:40.726Z,50.22
2018-07-12T10:16:14.279Z,49.81
2018-07-12T10:18:42.349Z,49.68
2018-07-12T10:21:10.408Z,48.89
2018-07-12T10:23:38.695Z,48.50
2018-07-12T10:26:06.896Z,47.35
2018-07-12T10:28:35.150Z,47.27
2018-07-12T10:31:03.306Z,46.91
2018-07-12T10:33:31.381Z,47.81
2018-07-12T10:35:59.460Z,47.88
2018-07-12T10:38:27.532Z,47.14
2018-07-12T10:40:55.589Z,47.02
2018-07-12T10:43:23.640Z,46.84
2018-07-12T10:45:51.745Z,47.94
2018-07-12T10:48:19.818Z,46.49
2018-07-12T10:50:47.870Z,45.66
2018-07-12T10:53:16.054Z,45.52
2018-07-12T10:55:44.073Z,45.93
2018-07-12T10:58:12.398Z,46.04
2018-07-12T11:00:40.469Z,46.13
2018-07-12T11:03:08.578Z,44.87
2018-07-12T11:05:36.620Z,44.32
2018-07-12T11:08:05.022Z,43.98
2018-07-12T11:10:33.378Z,44.26
2018-07-12T11:13:18.092Z,43.92
2018-07-12T11:15:46.894Z,44.31
2018-07-12T11:18:15.024Z,44.07
2018-07-12T11:20:43.132Z,43.23
2018-07-12T11:23:11.232Z,43.19
2018-07-12T11:25:39.616Z,42.51
2018-07-12T11:28:07.721Z,42.17
2018-07-12T11:30:35.758Z,41.51
2018-07-12T11:33:16.793Z,42.45
2018-07-12T11:35:44.840Z,42.61
2018-07-12T11:38:12.891Z,41.74
2018-07-12T11:40:41.161Z,40.61
2018-07-12T11:43:09.347Z,41.18
2018-07-12T11:45:37.418Z,40.48
2018-07-12T11:48:05.889Z,40.02
2018-07-12T11:50:33.944Z,39.61
2018-07-12T11:53:02.023Z,40.22
2018-07-12T11:55:30.029Z,39.75
2018-07-12T11:57:58.068Z,40.61
2018-07-12T12:00:26.126Z,39.45
2018-07-12T12:02:54.192Z,39.72
2018-07-12T12:05:22.248Z,37.33
2018-07-12T12:07:50.381Z,38.29
2018-07-12T12:10:18.433Z,37.02
2018-07-12T12:12:46.504Z,37.55
2018-07-12T12:15:14.516Z,37.44
2018-07-12T12:17:42.608Z,37.61
2018-07-12T12:20:10.658Z,38.14
2018-07-12T12:22:38.702Z,37.71
2018-07-12T12:25:06.759Z,36.99
2018-07-12T12:27:35.035Z,37.80
2018-07-12T12:30:03.212Z,38.35
2018-07-12T12:32:31.353Z,36.71
2018-07-12T12:34:59.449Z,36.39
2018-07-12T12:37:27.489Z,36.17
2018-07-12T12:39:55.530Z,36.88
2018-07-12T12:42:23.568Z,36.67
2018-07-12T12:44:51.621Z,35.51
2018-07-12T12:47:19.637Z,35.13
2018-07-12T12:49:47.689Z,34.78
2018-07-12T12:52:15.846Z,35.73
2018-07-12T12:54:44.197Z,34.52
2018-07-12T12:57:12.274Z,35.48
2018-07-12T12:59:40.358Z,36.59
2018-07-12T13:02:08.429Z,35.83
2018-07-12T13:04:36.597Z,36.87
2018-07-12T13:07:04.989Z,37.76
2018-07-12T13:09:33.049Z,37.48
2018-07-12T13:12:01.141Z,37.99
2018-07-12T13:14:29.228Z,35.92
2018-07-12T13:16:57.261Z,37.09
2018-07-12T13:19:25.334Z,37.44
2018-07-12T13:21:53.481Z,37.57
2018-07-12T13:24:21.571Z,37.30
2018-07-12T13:26:49.685Z,37.88
2018-07-12T13:29:17.733Z,38.50
2018-07-12T13:31:45.766Z,37.37
2018-07-12T13:34:14.072Z,37.99
2018-07-12T13:36:42.417Z,38.30
2018-07-12T13:39:10.902Z,39.26
2018-07-12T13:41:38.977Z,39.11
2018-07-12T13:44:19.917Z,39.27
2018-07-12T13:46:49.085Z,39.98
2018-07-12T13:49:17.416Z,38.64
2018-07-12T13:51:47.024Z,39.34
2018-07-12T13:54:15.305Z,39.79
2018-07-12T13:56:43.356Z,39.96
2018-07-12T13:59:11.530Z,39.21
2018-07-12T14:01:39.567Z,39.58
2018-07-12T14:04:08.912Z,40.42
2018-07-12T14:06:37.010Z,40.61
2018-07-12T14:09:07.013Z,39.84
2018-07-12T14:11:35.185Z,40.85
2018-07-12T14:14:03.374Z,39.83
2018-07-12T14:16:31.437Z,39.21
2018-07-12T14:18:59.516Z,38.43
2018-07-12T14:21:27.521Z,39.23
2018-07-12T14:23:55.682Z,39.93
2018-07-12T14:26:23.886Z,39.44
2018-07-12T14:28:52.105Z,39.09
2018-07-12T14:31:20.161Z,40.58
2018-07-12T14:33:48.536Z,41.78
2018-07-12T14:36:16.573Z,42.05
2018-07-12T14:38:44.610Z,41.59
2018-07-12T14:41:12.887Z,42.20
2018-07-12T14:43:40.949Z,42.97
2018-07-12T14:46:09.117Z,43.16
2018-07-12T14:48:37.149Z,43.38
2018-07-12T14:51:05.185Z,42.94
2018-07-12T14:53:33.274Z,43.15
2018-07-12T14:56:01.403Z,41.31
2018-07-12T14:58:29.546Z,42.45
2018-07-12T15:00:57.576Z,40.40
2018-07-12T15:03:25.705Z,41.37
2018-07-12T15:05:53.744Z,40.28
2018-07-12T15:08:21.765Z,40.41
2018-07-12T15:10:50.113Z,39.17
2018-07-12T15:13:18.397Z,37.11
2018-07-12T15:15:46.553Z,34.74
2018-07-12T15:18:14.788Z,35.56
2018-07-12T15:20:43.088Z,34.19
2018-07-12T15:23:11.137Z,34.63
2018-07-12T15:25:39.258Z,34.55
2018-07-12T15:28:07.404Z,33.25
2018-07-12T15:30:35.409Z,33.17
2018-07-12T15:33:03.445Z,33.85
2018-07-12T15:35:31.532Z,33.46
2018-07-12T15:37:59.601Z,33.91
2018-07-12T15:40:27.646Z,32.42
2018-07-12T15:42:55.685Z,32.53
2018-07-12T15:45:23.817Z,32.54
2018-07-12T15:47:51.901Z,32.04
2018-07-12T15:50:21.136Z,32.94
2018-07-12T15:52:49.546Z,33.12
2018-07-12T15:55:17.586Z,33.23
2018-07-12T15:57:45.715Z,34.15
2018-07-12T16:00:13.793Z,33.26
2018-07-12T16:03:01.012Z,34.03
2018-07-12T16:05:29.103Z,34.22
2018-07-12T16:10:50.422Z,34.99
2018-07-12T16:13:18.497Z,34.84
2018-07-12T16:15:46.750Z,34.66
2018-07-12T16:18:14.962Z,34.61
2018-07-12T16:20:43.193Z,35.58
2018-07-12T16:23:11.222Z,35.42
2018-07-12T16:25:39.276Z,36.59
2018-07-12T16:28:07.318Z,36.04
2018-07-12T16:30:35.352Z,35.78
2018-07-12T16:33:03.488Z,35.64
2018-07-12T16:35:31.493Z,36.98
2018-07-12T16:37:59.552Z,36.83
2018-07-12T16:40:27.584Z,36.03
2018-07-12T16:42:55.626Z,37.17
2018-07-12T16:45:23.660Z,37.44
2018-07-12T16:47:51.708Z,36.88
2018-07-12T16:50:19.737Z,38.10
2018-07-12T16:52:47.778Z,37.14
2018-07-12T16:55:15.817Z,37.46
2018-07-12T16:57:43.958Z,37.26
2018-07-12T17:00:12.133Z,37.27
2018-07-12T17:02:40.737Z,38.07
2018-07-12T17:05:08.825Z,38.38
2018-07-12T17:07:36.990Z,37.94
2018-07-12T17:10:05.029Z,38.34
2018-07-12T17:12:33.325Z,38.91
2018-07-12T17:15:02.218Z,38.17
2018-07-12T17:17:30.245Z,39.01
2018-07-12T17:19:58.452Z,38.60
2018-07-12T17:22:26.647Z,38.89
2018-07-12T17:24:54.677Z,38.22
2018-07-12T17:27:22.736Z,37.93
2018-07-12T17:29:51.045Z,37.73
2018-07-12T17:32:19.104Z,37.95
2018-07-12T17:34:47.376Z,38.07
2018-07-12T17:37:15.412Z,39.16
2018-07-12T17:39:43.441Z,39.31
2018-07-12T17:42:12.082Z,38.46
2018-07-12T17:44:44.084Z,38.55
2018-07-12T17:47:12.793Z,39.21
2018-07-12T17:49:41.345Z,39.58
2018-07-12T17:52:10.442Z,39.50
2018-07-12T17:54:39.284Z,40.03
2018-07-12T17:57:07.823Z,40.11
2018-07-12T17:59:36.360Z,39.89
2018-07-12T18:02:04.527Z,40.93
2018-07-12T18:04:32.595Z,41.30
2018-07-12T18:07:00.638Z,40.96
2018-07-12T18:09:29.551Z,41.92
2018-07-12T18:11:57.585Z,41.53
2018-07-12T18:14:25.728Z,41.96
2018-07-12T18:16:53.932Z,41.90
2018-07-12T18:19:21.975Z,42.33
2018-07-12T18:21:51.318Z,42.33
2018-07-12T18:24:19.684Z,42.57
2018-07-12T18:26:47.950Z,42.79
2018-07-12T18:29:16.077Z,42.36
2018-07-12T18:31:44.954Z,42.63
2018-07-12T18:34:13.010Z,42.61
2018-07-12T18:36:41.078Z,42.07
2018-07-12T18:39:09.902Z,43.03
2018-07-12T18:41:38.210Z,41.85
2018-07-12T18:44:06.276Z,42.68
2018-07-12T18:46:34.349Z,43.14
2018-07-12T18:49:02.401Z,43.09
2018-07-12T18:51:32.617Z,43.46
2018-07-12T18:54:00.702Z,42.96
2018-07-12T18:56:28.957Z,43.29
2018-07-12T18:58:57.416Z,43.99
2018-07-12T19:01:25.482Z,43.35
2018-07-12T19:03:53.981Z,43.75
2018-07-12T19:06:22.058Z,44.70
2018-07-12T19:08:50.926Z,43.95
2018-07-12T19:11:19.015Z,44.60
2018-07-12T19:13:47.762Z,44.63
2018-07-12T19:16:16.130Z,45.49
2018-07-12T19:18:44.177Z,45.46
2018-07-12T19:21:12.225Z,45.44
2018-07-12T19:23:40.277Z,45.38
2018-07-12T19:26:08.322Z,45.55
2018-07-12T19:28:42.229Z,46.44
2018-07-12T19:31:11.182Z,46.68
2018-07-12T19:33:39.535Z,47.30
2018-07-12T19:36:08.186Z,46.55
2018-07-12T19:38:36.567Z,46.93
2018-07-12T19:41:04.867Z,47.81
2018-07-12T19:43:32.902Z,47.22
2018-07-12T19:46:01.402Z,47.38
2018-07-12T19:48:29.685Z,48.38
2018-07-12T19:50:57.729Z,48.02
2018-07-12T19:53:25.930Z,47.97
2018-07-12T19:55:53.992Z,49.02
2018-07-12T19:58:22.101Z,48.93
2018-07-12T20:00:50.144Z,48.82
2018-07-12T20:03:18.528Z,48.84
2018-07-12T20:05:46.761Z,49.40
2018-07-12T20:08:14.814Z,49.30
2018-07-12T20:10:43.344Z,49.59
2018-07-12T20:13:12.010Z,49.63
2018-07-12T20:15:40.439Z,50.01
2018-07-12T20:18:08.825Z,49.71
2018-07-12T20:20:37.218Z,50.25
2018-07-12T20:23:06.134Z,50.66
2018-07-12T20:25:35.152Z,50.68
2018-07-12T20:28:03.197Z,50.25
2018-07-12T20:30:31.236Z,51.06
2018-07-12T20:32:59.994Z,51.02
2018-07-12T20:35:28.313Z,50.82
2018-07-12T20:37:56.331Z,51.14
2018-07-12T20:40:24.463Z,51.44
2018-07-12T20:42:52.489Z,51.19
2018-07-12T20:45:20.516Z,50.72
2018-07-12T20:47:48.553Z,51.02
2018-07-12T20:50:16.581Z,51.32
2018-07-12T20:52:44.833Z,51.00
2018-07-12T20:55:12.885Z,51.75
2018-07-12T20:57:40.933Z,51.29
2018-07-12T21:00:08.972Z,51.87
2018-07-12T21:02:37.009Z,51.11
2018-07-12T21:05:05.046Z,51.58
2018-07-12T21:07:33.229Z,51.59
2018-07-12T21:10:01.932Z,51.82
2018-07-12T21:12:29.955Z,51.23
2018-07-12T21:14:58.027Z,51.63
2018-07-12T21:17:26.059Z,52.00
2018-07-12T21:19:54.828Z,51.50
2018-07-12T21:22:23.001Z,52.34
2018-07-12T21:24:51.039Z,52.14
2018-07-12T21:27:19.681Z,52.20
2018-07-12T21:29:47.716Z,51.89
2018-07-12T21:32:15.733Z,51.93
2018-07-12T21:34:43.767Z,52.14
2018-07-12T21:37:11.796Z,52.37
2018-07-12T21:39:39.817Z,52.99
2018-07-12T21:42:07.857Z,52.52
2018-07-12T21:44:35.899Z,53.02
2018-07-12T21:47:05.189Z,53.06
2018-07-12T21:49:33.212Z,53.47
2018-07-12T21:52:01.674Z,53.50
2018-07-12T21:54:29.764Z,54.44
2018-07-12T21:56:57.801Z,53.90
2018-07-12T21:59:26.130Z,54.65
2018-07-12T22:01:54.421Z,55.00
2018-07-12T22:04:22.437Z,54.50
2018-07-12T22:07:04.609Z,55.42
2018-07-12T22:09:32.837Z,55.73
2018-07-12T22:12:00.895Z,55.46
2018-07-12T22:14:28.929Z,55.97
2018-07-12T22:16:56.962Z,55.68
2018-07-12T22:19:24.991Z,56.09
2018-07-12T22:21:53.022Z,55.61
2018-07-12T22:24:21.061Z,56.33
2018-07-12T22:26:49.345Z,55.88
2018-07-12T22:29:17.368Z,56.03
2018-07-12T22:31:45.409Z,56.55
2018-07-12T22:34:13.433Z,55.73
2018-07-12T22:36:41.481Z,56.64
2018-07-12T22:39:09.501Z,56.53
2018-07-12T22:41:37.532Z,56.60
2018-07-12T22:44:05.757Z,56.67
2018-07-12T22:46:33.777Z,57.15
2018-07-12T22:49:01.939Z,57.72
2018-07-12T22:51:29.840Z,58.01
2018-07-12T22:53:57.856Z,58.73
2018-07-12T22:56:25.880Z,59.19
2018-07-12T22:58:53.904Z,58.16
2018-07-12T23:01:21.945Z,59.44
2018-07-12T23:03:49.961Z,59.08
2018-07-12T23:06:18.003Z,59.36
2018-07-12T23:08:46.014Z,60.45
2018-07-12T23:11:14.311Z,59.34
2018-07-12T23:13:42.340Z,59.88
2018-07-12T23:16:10.357Z,60.33
2018-07-12T23:18:38.388Z,60.18
2018-07-12T23:21:06.597Z,60.75
2018-07-12T23:23:34.624Z,60.00
2018-07-12T23:26:02.658Z,61.24
2018-07-12T23:28:30.697Z,60.76
2018-07-12T23:30:58.720Z,61.36
2018-07-12T23:33:26.749Z,61.41
2018-07-12T23:35:54.798Z,62.36
2018-07-12T23:38:22.828Z,62.91
2018-07-12T23:40:50.858Z,62.81
2018-07-12T23:43:18.895Z,62.23
2018-07-12T23:45:46.928Z,63.37
2018-07-12T23:48:14.963Z,63.39
2018-07-12T23:50:42.994Z,63.05
2018-07-12T23:53:11.026Z,62.68
2018-07-12T23:55:39.053Z,63.75
2018-07-12T23:58:07.098Z,63.80
